createdAt,value
2023-03-11T00:01:31.240Z,97268.09
2023-03-11T00:04:03.556Z,97264.33
2023-03-11T00:06:37.868Z,97257.89
2023-03-11T00:09:10.482Z,97256.95
2023-03-11T00:11:42.953Z,97246.54
2023-03-11T00:14:15.438Z,97244.79
2023-03-11T00:16:47.876Z,97241.14
2023-03-11T00:19:20.428Z,97236.45
2023-03-11T00:21:52.812Z,97233.45
2023-03-11T00:24:25.101Z,97226.48
2023-03-11T00:26:57.499Z,97219.31
2023-03-11T00:29:30.173Z,97213.30
2023-03-11T00:32:02.665Z,97221.02
2023-03-11T00:34:35.303Z,97214.60
2023-03-11T00:37:07.677Z,97207.23
2023-03-11T00:39:40.028Z,97197.92
2023-03-11T00:42:12.468Z,97190.21
2023-03-11T00:44:44.897Z,97181.17
2023-03-11T00:47:17.289Z,97181.24
2023-03-11T00:49:50.257Z,97174.28
2023-03-11T00:52:22.520Z,97176.48
2023-03-11T00:54:55.040Z,97186.28
2023-03-11T00:57:29.377Z,97183.59
2023-03-11T01:00:01.955Z,97181.41
2023-03-11T01:02:36.118Z,97181.71
2023-03-11T01:05:09.578Z,97171.82
2023-03-11T01:07:42.007Z,97167.46
2023-03-11T01:10:15.928Z,97166.23
2023-03-11T01:12:48.228Z,97167.97
2023-03-11T01:15:23.387Z,97163.92
2023-03-11T01:17:55.672Z,97162.27
2023-03-11T01:20:28.200Z,97159.26
2023-03-11T01:23:00.703Z,97156.02
2023-03-11T01:25:33.926Z,97160.16
2023-03-11T01:28:08.411Z,97151.92
2023-03-11T01:30:43.167Z,97153.73
2023-03-11T01:33:20.346Z,97157.67
2023-03-11T01:35:52.778Z,97155.25
2023-03-11T01:38:25.245Z,97151.30
2023-03-11T01:40:57.636Z,97154.86
2023-03-11T01:43:50.557Z,97152.02
2023-03-11T01:46:29.278Z,97153.19
2023-03-11T01:49:03.994Z,97155.11
2023-03-11T01:51:42.572Z,97148.42
2023-03-11T01:54:21.030Z,97149.13
2023-03-11T01:56:54.456Z,97146.09
2023-03-11T01:59:30.207Z,97147.30
2023-03-11T02:02:09.713Z,97146.56
2023-03-11T02:04:43.654Z,97145.02
2023-03-11T02:07:17.120Z,97143.15
2023-03-11T02:09:49.985Z,97140.86
2023-03-11T02:12:23.104Z,97138.81
2023-03-11T02:14:55.789Z,97136.71
2023-03-11T02:17:28.296Z,97137.85
2023-03-11T02:20:13.797Z,97136.89
2023-03-11T02:22:47.292Z,97138.83
2023-03-11T02:25:27.732Z,97143.91
2023-03-11T02:28:02.314Z,97146.62
2023-03-11T02:30:36.968Z,97149.66
2023-03-11T02:33:10.134Z,97151.55
2023-03-11T02:35:42.750Z,97154.34
2023-03-11T02:38:15.391Z,97156.84
2023-03-11T02:40:54.011Z,97157.71
2023-03-11T02:43:33.598Z,97160.36
2023-03-11T02:46:10.155Z,97165.44
2023-03-11T02:48:44.439Z,97162.70
2023-03-11T02:51:17.397Z,97163.13
2023-03-11T02:53:52.834Z,97164.27
2023-03-11T02:56:25.852Z,97165.23
2023-03-11T02:58:58.356Z,97170.41
2023-03-11T03:01:31.171Z,97176.31
2023-03-11T03:04:04.261Z,97180.77
2023-03-11T03:06:37.820Z,97184.72
2023-03-11T03:09:10.162Z,97186.71
2023-03-11T03:11:42.512Z,97187.67
2023-03-11T03:14:15.120Z,97186.52
2023-03-11T03:16:47.705Z,97191.73
2023-03-11T03:19:20.300Z,97192.58
2023-03-11T03:21:52.648Z,97194.83
2023-03-11T03:24:26.868Z,97195.36
2023-03-11T03:26:59.242Z,97200.13
2023-03-11T03:29:32.109Z,97200.70
2023-03-11T03:32:05.090Z,97199.30
2023-03-11T03:34:38.441Z,97202.91
2023-03-11T03:37:10.759Z,97205.70
2023-03-11T03:39:43.284Z,97208.54
2023-03-11T03:42:16.606Z,97213.52
2023-03-11T03:44:49.721Z,97218.67
2023-03-11T03:47:22.352Z,97216.11
2023-03-11T03:49:54.877Z,97215.23
2023-03-11T03:52:27.252Z,97213.47
2023-03-11T03:54:59.712Z,97218.83
2023-03-11T03:57:32.975Z,97221.91
2023-03-11T04:00:10.216Z,97225.33
2023-03-11T04:02:50.415Z,97232.77
2023-03-11T04:05:30.470Z,97232.63
2023-03-11T04:08:02.796Z,97234.95
2023-03-11T04:10:35.117Z,97236.09
2023-03-11T04:13:08.163Z,97235.77
2023-03-11T04:15:41.758Z,97234.95
2023-03-11T04:18:14.167Z,97241.11
2023-03-11T04:20:46.656Z,97246.23
2023-03-11T04:23:20.518Z,97244.28
2023-03-11T04:25:52.782Z,97247.35
2023-03-11T04:28:25.336Z,97250.75
2023-03-11T04:30:58.237Z,97253.45
2023-03-11T04:33:30.849Z,97260.06
2023-03-11T04:36:08.974Z,97261.45
2023-03-11T04:38:42.234Z,97260.98
2023-03-11T04:41:15.439Z,97263.38
2023-03-11T04:43:48.091Z,97267.70
2023-03-11T04:46:20.563Z,97275.50
2023-03-11T04:48:53.783Z,97282.20
2023-03-11T04:51:26.488Z,97288.15
2023-03-11T04:53:58.938Z,97284.67
2023-03-11T04:56:32.677Z,97280.16
2023-03-11T04:59:05.226Z,97277.70
2023-03-11T05:01:38.247Z,97272.20
2023-03-11T05:04:12.916Z,97267.27
2023-03-11T05:06:45.900Z,97259.55
2023-03-11T05:09:18.502Z,97258.68
2023-03-11T05:11:50.907Z,97264.32
2023-03-11T05:14:23.789Z,97267.69
2023-03-11T05:16:56.926Z,97272.77
2023-03-11T05:19:32.344Z,97279.27
2023-03-11T05:22:07.404Z,97274.52
2023-03-11T05:24:40.038Z,97266.83
2023-03-11T05:27:12.852Z,97266.58
2023-03-11T05:29:45.990Z,97268.89
2023-03-11T05:32:19.384Z,97269.13
2023-03-11T05:34:53.428Z,97271.02
2023-03-11T05:37:26.290Z,97275.90
2023-03-11T05:40:00.475Z,97285.38
2023-03-11T05:42:32.903Z,97293.98
2023-03-11T05:45:05.549Z,97297.29
2023-03-11T05:47:38.492Z,97297.48
2023-03-11T05:50:15.499Z,97301.14
2023-03-11T05:52:48.766Z,97301.46
2023-03-11T05:55:21.668Z,97303.94
2023-03-11T05:57:55.279Z,97309.69
2023-03-11T06:00:29.597Z,97313.63
2023-03-11T06:03:04.016Z,97317.33
2023-03-11T06:05:36.412Z,97318.16
2023-03-11T06:08:08.840Z,97322.10
2023-03-11T06:10:41.176Z,97324.15
2023-03-11T06:13:13.572Z,97334.52
2023-03-11T06:15:53.419Z,97342.41
2023-03-11T06:18:27.067Z,97346.67
2023-03-11T06:21:01.660Z,97357.73
2023-03-11T06:23:34.048Z,97362.78
2023-03-11T06:26:08.052Z,97369.89
2023-03-11T06:28:45.024Z,97381.21
2023-03-11T06:31:20.723Z,97389.73
2023-03-11T06:33:53.310Z,97391.86
2023-03-11T06:36:26.335Z,97402.45
2023-03-11T06:38:58.864Z,97408.48
2023-03-11T06:41:34.053Z,97416.89
2023-03-11T06:44:07.022Z,97421.33
2023-03-11T06:46:41.168Z,97427.90
2023-03-11T06:49:13.505Z,97433.23
2023-03-11T06:51:46.238Z,97432.17
2023-03-11T06:54:19.190Z,97437.59
2023-03-11T06:56:51.589Z,97442.11
2023-03-11T06:59:24.319Z,97449.08
2023-03-11T07:01:57.862Z,97454.53
2023-03-11T07:04:30.404Z,97461.02
2023-03-11T07:07:02.854Z,97463.52
2023-03-11T07:09:35.318Z,97472.95
2023-03-11T07:12:11.144Z,97479.73
2023-03-11T07:14:44.091Z,97485.23
2023-03-11T07:17:16.396Z,97493.42
2023-03-11T07:19:52.623Z,97501.98
2023-03-11T07:22:24.945Z,97508.46
2023-03-11T07:24:57.198Z,97511.00
2023-03-11T07:27:30.686Z,97521.56
2023-03-11T07:30:03.734Z,97529.39
2023-03-11T07:32:36.043Z,97535.06
2023-03-11T07:35:10.801Z,97539.50
2023-03-11T07:37:43.180Z,97548.80
2023-03-11T07:40:17.278Z,97558.02
2023-03-11T07:42:49.633Z,97560.55
2023-03-11T07:45:24.167Z,97563.91
2023-03-11T07:47:56.486Z,97569.69
2023-03-11T07:50:28.904Z,97571.41
2023-03-11T07:53:01.248Z,97576.30
2023-03-11T07:55:34.540Z,97575.48
2023-03-11T07:58:07.180Z,97575.57
2023-03-11T08:00:39.441Z,97576.88
2023-03-11T08:03:11.826Z,97576.43
2023-03-11T08:05:44.252Z,97581.75
2023-03-11T08:08:16.607Z,97591.30
2023-03-11T08:10:49.039Z,97598.45
2023-03-11T08:13:21.382Z,97605.41
2023-03-11T08:15:53.684Z,97611.03
2023-03-11T08:18:26.120Z,97619.10
2023-03-11T08:20:58.533Z,97621.05
2023-03-11T08:23:31.092Z,97627.59
2023-03-11T08:26:06.216Z,97634.85
2023-03-11T08:28:38.976Z,97641.50
2023-03-11T08:31:16.850Z,97645.85
2023-03-11T08:33:51.082Z,97651.69
2023-03-11T08:36:23.781Z,97656.62
2023-03-11T08:38:56.107Z,97664.98
2023-03-11T08:41:29.326Z,97670.23
2023-03-11T08:44:01.938Z,97682.84
2023-03-11T08:46:36.974Z,97688.65
2023-03-11T08:49:10.006Z,97697.33
2023-03-11T08:51:42.739Z,97704.14
2023-03-11T08:54:14.987Z,97712.45
2023-03-11T08:56:48.094Z,97720.04
2023-03-11T08:59:20.362Z,97729.42
2023-03-11T09:01:52.714Z,97733.42
2023-03-11T09:04:25.041Z,97735.27
2023-03-11T09:06:57.239Z,97733.86
2023-03-11T09:09:29.522Z,97739.02
2023-03-11T09:12:01.772Z,97742.25
2023-03-11T09:14:34.067Z,97749.43
2023-03-11T09:17:06.420Z,97752.10
2023-03-11T09:19:39.257Z,97756.45
2023-03-11T09:22:11.623Z,97769.86
2023-03-11T09:24:43.886Z,97776.93
2023-03-11T09:27:16.362Z,97778.02
2023-03-11T09:29:48.684Z,97781.26
2023-03-11T09:32:21.377Z,97791.96
2023-03-11T09:34:53.869Z,97793.64
2023-03-11T09:37:27.083Z,97803.77
2023-03-11T09:39:59.424Z,97805.46
2023-03-11T09:42:38.989Z,97814.02
2023-03-11T09:45:19.477Z,97822.63
2023-03-11T09:48:06.043Z,97823.20
2023-03-11T09:50:44.060Z,97830.38
2023-03-11T09:53:24.001Z,97836.56
2023-03-11T09:55:58.640Z,97847.00
2023-03-11T09:58:39.995Z,97853.30
2023-03-11T10:01:19.285Z,97861.32
2023-03-11T10:03:54.623Z,97873.04
2023-03-11T10:06:30.607Z,97880.15
2023-03-11T10:09:08.672Z,97890.02
2023-03-11T10:11:57.501Z,97893.48
2023-03-11T10:14:51.679Z,97900.63
2023-03-11T10:17:44.107Z,97903.55
2023-03-11T10:20:26.189Z,97911.77
2023-03-11T10:23:10.344Z,97916.56
2023-03-11T10:25:53.730Z,97925.09
2023-03-11T10:28:33.725Z,97935.14
2023-03-11T10:31:19.086Z,97947.31
2023-03-11T10:33:51.681Z,97951.02
2023-03-11T10:36:28.464Z,97952.53
2023-03-11T10:39:02.095Z,97958.98
2023-03-11T10:41:42.892Z,97962.98
2023-03-11T10:44:20.498Z,97969.67
2023-03-11T10:46:52.759Z,97974.41
2023-03-11T10:49:25.054Z,97981.59
2023-03-11T10:51:58.512Z,97987.78
2023-03-11T10:54:33.726Z,97988.60
2023-03-11T10:57:05.350Z,97992.33
2023-03-11T10:59:49.805Z,98000.76
2023-03-11T11:02:27.185Z,98004.98
2023-03-11T11:05:28.323Z,98010.93
2023-03-11T11:08:09.710Z,98013.69
2023-03-11T11:10:52.741Z,98018.03
2023-03-11T11:13:26.916Z,98023.30
2023-03-11T11:16:01.699Z,98035.56
2023-03-11T11:18:38.032Z,98040.79
2023-03-11T11:21:15.122Z,98049.34
2023-03-11T11:23:53.024Z,98054.10
2023-03-11T11:26:27.517Z,98055.88
2023-03-11T11:29:15.190Z,98056.98
2023-03-11T11:31:48.559Z,98064.67
2023-03-11T11:34:32.101Z,98070.77
2023-03-11T11:37:07.065Z,98072.10
2023-03-11T11:39:52.105Z,98082.77
2023-03-11T11:42:27.684Z,98089.05
2023-03-11T11:45:04.579Z,98094.20
2023-03-11T11:47:43.294Z,98091.97
2023-03-11T11:50:24.909Z,98102.19
2023-03-11T11:53:05.932Z,98107.58
2023-03-11T11:55:41.229Z,98107.83
2023-03-11T11:58:13.463Z,98113.25
2023-03-11T12:00:56.240Z,98121.56
2023-03-11T12:03:54.937Z,98128.52
2023-03-11T12:06:37.097Z,98133.56
2023-03-11T12:09:24.345Z,98136.80
2023-03-11T12:12:06.353Z,98140.66
2023-03-11T12:14:46.649Z,98153.00
2023-03-11T12:17:23.625Z,98162.36
2023-03-11T12:20:01.309Z,98169.39
2023-03-11T12:23:02.690Z,98178.13
2023-03-11T12:25:41.566Z,98181.02
2023-03-11T12:28:24.965Z,98189.74
2023-03-11T12:31:00.723Z,98190.27
2023-03-11T12:33:38.228Z,98193.70
2023-03-11T12:36:25.712Z,98190.98
2023-03-11T12:38:58.495Z,98196.27
2023-03-11T12:41:37.038Z,98201.88
2023-03-11T12:44:28.888Z,98202.59
2023-03-11T12:47:18.490Z,98211.66
2023-03-11T12:49:54.973Z,98215.38
2023-03-11T12:52:34.428Z,98224.58
2023-03-11T12:55:35.240Z,98229.91
2023-03-11T12:58:34.252Z,98240.88
2023-03-11T13:01:37.098Z,98247.56
2023-03-11T13:04:27.019Z,98254.34
2023-03-11T13:07:47.680Z,98252.95
2023-03-11T13:10:37.455Z,98264.30
2023-03-11T13:13:42.720Z,98265.27
2023-03-11T13:16:39.785Z,98278.86
2023-03-11T13:19:37.050Z,98287.67
2023-03-11T13:23:04.863Z,98295.36
2023-03-11T13:25:42.056Z,98297.59
2023-03-11T13:28:38.910Z,98305.11
2023-03-11T13:31:23.889Z,98309.40
2023-03-11T13:33:59.160Z,98320.39
2023-03-11T13:36:45.891Z,98328.40
2023-03-11T13:39:45.589Z,98333.86
2023-03-11T13:42:23.623Z,98337.73
2023-03-11T13:44:56.306Z,98345.88
2023-03-11T13:47:30.187Z,98343.85
2023-03-11T13:50:10.296Z,98354.88
2023-03-11T13:52:49.126Z,98361.16
2023-03-11T13:55:25.156Z,98363.77
2023-03-11T13:57:58.662Z,98371.75
2023-03-11T14:00:34.075Z,98378.56
2023-03-11T14:03:12.910Z,98388.02
2023-03-11T14:05:49.386Z,98393.02
2023-03-11T14:08:27.041Z,98400.79
2023-03-11T14:11:00.448Z,98410.02
2023-03-11T14:13:33.870Z,98412.86
2023-03-11T14:16:09.993Z,98415.73
2023-03-11T14:18:43.643Z,98423.20
2023-03-11T14:21:18.281Z,98425.98
2023-03-11T14:23:53.389Z,98435.18
2023-03-11T14:26:29.212Z,98441.75
2023-03-11T14:29:03.828Z,98446.26
2023-03-11T14:31:38.111Z,98454.22
2023-03-11T14:34:18.370Z,98457.48
2023-03-11T14:36:54.419Z,98461.11
2023-03-11T14:39:32.492Z,98463.73
2023-03-11T14:42:18.912Z,98468.55
2023-03-11T14:44:58.031Z,98471.41
2023-03-11T14:47:37.807Z,98477.58
2023-03-11T14:50:17.572Z,98478.19
2023-03-11T14:52:52.967Z,98484.91
2023-03-11T14:55:28.364Z,98492.85
2023-03-11T14:58:04.776Z,98495.81
2023-03-11T15:00:41.693Z,98500.11
2023-03-11T15:03:23.666Z,98502.89
2023-03-11T15:05:59.197Z,98507.45
2023-03-11T15:08:35.979Z,98510.77
2023-03-11T15:11:24.469Z,98518.79
2023-03-11T15:14:17.419Z,98520.50
2023-03-11T15:16:49.972Z,98528.34
2023-03-11T15:19:32.251Z,98528.20
2023-03-11T15:22:22.625Z,98533.58
2023-03-11T15:24:57.189Z,98536.88
2023-03-11T15:27:35.486Z,98545.39
2023-03-11T15:30:23.297Z,98545.13
2023-03-11T15:32:56.364Z,98550.20
2023-03-11T15:35:29.939Z,98561.15
2023-03-11T15:38:25.659Z,98560.27
2023-03-11T15:41:01.446Z,98566.30
2023-03-11T15:43:35.955Z,98565.31
2023-03-11T15:46:11.801Z,98572.48
2023-03-11T15:48:44.990Z,98571.95
2023-03-11T15:51:22.229Z,98578.16
2023-03-11T15:53:54.588Z,98581.06
2023-03-11T15:56:27.350Z,98588.02
2023-03-11T15:58:59.798Z,98594.27
2023-03-11T16:01:32.570Z,98599.94
2023-03-11T16:04:04.889Z,98605.04
2023-03-11T16:06:37.452Z,98608.80
2023-03-11T16:09:09.980Z,98616.00
2023-03-11T16:11:44.015Z,98621.38
2023-03-11T16:14:20.078Z,98629.66
2023-03-11T16:16:52.426Z,98634.48
2023-03-11T16:19:24.961Z,98635.61
2023-03-11T16:21:57.278Z,98642.66
2023-03-11T16:24:29.843Z,98645.33
2023-03-11T16:27:02.353Z,98654.95
2023-03-11T16:29:34.870Z,98658.14
2023-03-11T16:32:08.734Z,98664.83
2023-03-11T16:34:41.202Z,98669.92
2023-03-11T16:37:20.715Z,98675.18
2023-03-11T16:39:53.834Z,98679.54
2023-03-11T16:42:26.399Z,98683.17
2023-03-11T16:44:58.767Z,98690.29
2023-03-11T16:47:31.146Z,98694.19
2023-03-11T16:50:04.210Z,98701.55
2023-03-11T16:52:36.848Z,98705.70
2023-03-11T16:55:12.325Z,98710.71
2023-03-11T16:57:45.183Z,98717.27
2023-03-11T17:00:19.102Z,98722.52
2023-03-11T17:02:51.484Z,98726.86
2023-03-11T17:05:23.807Z,98736.05
2023-03-11T17:08:01.146Z,98740.67
2023-03-11T17:10:39.358Z,98747.20
2023-03-11T17:13:12.865Z,98750.25
2023-03-11T17:15:45.899Z,98753.69
2023-03-11T17:18:18.215Z,98755.05
2023-03-11T17:20:50.586Z,98757.63
2023-03-11T17:23:23.408Z,98762.83
2023-03-11T17:25:55.838Z,98769.81
2023-03-11T17:28:28.646Z,98774.93
2023-03-11T17:31:01.176Z,98781.36
2023-03-11T17:33:33.459Z,98781.77
2023-03-11T17:36:09.747Z,98789.31
2023-03-11T17:38:42.293Z,98790.42
2023-03-11T17:41:17.000Z,98793.55
2023-03-11T17:43:51.547Z,98795.67
2023-03-11T17:46:24.273Z,98799.17
2023-03-11T17:48:56.710Z,98803.94
2023-03-11T17:51:29.177Z,98806.56
2023-03-11T17:54:01.892Z,98809.36
2023-03-11T17:56:34.275Z,98810.48
2023-03-11T17:59:06.624Z,98813.61
2023-03-11T18:01:39.337Z,98820.67
2023-03-11T18:04:11.706Z,98826.09
2023-03-11T18:06:44.436Z,98828.23
2023-03-11T18:09:17.228Z,98832.05
2023-03-11T18:11:49.581Z,98833.52
2023-03-11T18:14:21.817Z,98836.05
2023-03-11T18:16:54.201Z,98838.70
2023-03-11T18:19:26.586Z,98842.92
2023-03-11T18:21:59.013Z,98842.20
2023-03-11T18:24:31.379Z,98842.46
2023-03-11T18:27:03.698Z,98843.13
2023-03-11T18:29:36.081Z,98848.15
2023-03-11T18:32:08.929Z,98853.14
2023-03-11T18:34:41.778Z,98855.53
2023-03-11T18:37:14.089Z,98860.80
2023-03-11T18:39:46.955Z,98863.52
2023-03-11T18:42:19.238Z,98866.05
2023-03-11T18:44:51.671Z,98868.63
2023-03-11T18:47:24.084Z,98869.80
2023-03-11T18:49:57.134Z,98869.63
2023-03-11T18:52:29.523Z,98873.94
2023-03-11T18:55:01.913Z,98879.53
2023-03-11T18:57:34.245Z,98878.86
2023-03-11T19:00:07.900Z,98881.55
2023-03-11T19:02:40.189Z,98884.74
2023-03-11T19:05:12.731Z,98889.23
2023-03-11T19:07:45.054Z,98892.61
2023-03-11T19:10:20.103Z,98897.34
2023-03-11T19:12:52.529Z,98898.34
2023-03-11T19:15:24.948Z,98900.35
2023-03-11T19:18:06.219Z,98900.91
2023-03-11T19:20:39.771Z,98899.70
2023-03-11T19:23:12.410Z,98903.75
2023-03-11T19:26:00.692Z,98907.94
2023-03-11T19:28:35.120Z,98913.16
2023-03-11T19:31:07.895Z,98916.98
2023-03-11T19:33:40.430Z,98923.88
2023-03-11T19:36:14.086Z,98926.33
2023-03-11T19:38:46.381Z,98931.76
2023-03-11T19:41:20.584Z,98936.68
2023-03-11T19:43:53.153Z,98943.34
2023-03-11T19:46:25.581Z,98947.38
2023-03-11T19:48:58.971Z,98950.93
2023-03-11T19:51:46.430Z,98944.55
2023-03-11T19:54:21.773Z,98948.73
2023-03-11T19:56:54.148Z,98950.87
2023-03-11T19:59:26.474Z,98957.27
2023-03-11T20:01:58.925Z,98961.55
2023-03-11T20:04:31.456Z,98960.12
2023-03-11T20:07:03.997Z,98959.51
2023-03-11T20:09:36.628Z,98956.59
2023-03-11T20:12:09.740Z,98960.62
2023-03-11T20:14:43.337Z,98965.52
2023-03-11T20:17:16.014Z,98968.55
2023-03-11T20:19:48.265Z,98969.79
2023-03-11T20:22:20.840Z,98975.13
2023-03-11T20:24:53.536Z,98978.44
2023-03-11T20:27:25.871Z,98978.25
2023-03-11T20:29:58.293Z,98982.56
2023-03-11T20:32:31.139Z,98990.53
2023-03-11T20:35:04.272Z,98993.30
2023-03-11T20:37:36.673Z,98989.98
2023-03-11T20:40:13.169Z,98990.95
2023-03-11T20:42:47.260Z,98997.38
2023-03-11T20:45:22.059Z,98996.98
2023-03-11T20:47:55.855Z,98998.86
2023-03-11T20:50:28.253Z,98998.80
2023-03-11T20:53:00.666Z,98999.34
2023-03-11T20:55:33.249Z,99004.48
2023-03-11T20:58:06.190Z,99002.71
2023-03-11T21:00:38.839Z,99003.67
2023-03-11T21:03:11.418Z,99003.63
2023-03-11T21:05:45.689Z,99002.38
2023-03-11T21:08:18.350Z,99005.31
2023-03-11T21:10:50.931Z,99003.44
2023-03-11T21:13:23.745Z,99000.20
2023-03-11T21:15:57.674Z,99001.16
2023-03-11T21:18:30.277Z,99001.84
2023-03-11T21:21:04.016Z,98995.09
2023-03-11T21:23:36.984Z,98999.83
2023-03-11T21:26:09.978Z,98996.19
2023-03-11T21:28:46.777Z,98994.59
2023-03-11T21:31:21.342Z,98994.63
2023-03-11T21:33:55.465Z,98989.82
2023-03-11T21:36:28.325Z,98986.00
2023-03-11T21:39:03.409Z,98987.08
2023-03-11T21:41:36.355Z,98985.23
2023-03-11T21:44:09.001Z,98981.14
2023-03-11T21:46:41.570Z,98981.79
2023-03-11T21:49:14.103Z,98983.69
2023-03-11T21:51:46.448Z,98983.59
2023-03-11T21:54:18.913Z,98983.27
2023-03-11T21:56:51.457Z,98981.12
2023-03-11T21:59:25.584Z,98984.19
2023-03-11T22:02:01.432Z,98983.61
2023-03-11T22:04:34.279Z,98984.19
2023-03-11T22:07:06.859Z,98985.29
2023-03-11T22:09:39.259Z,98987.10
2023-03-11T22:12:11.706Z,98989.30
2023-03-11T22:14:44.038Z,98990.40
2023-03-11T22:17:16.608Z,98985.59
2023-03-11T22:19:49.414Z,98988.40
2023-03-11T22:22:21.876Z,98988.04
2023-03-11T22:24:54.089Z,98984.63
2023-03-11T22:27:26.423Z,98980.54
2023-03-11T22:29:58.688Z,98984.23
2023-03-11T22:32:31.000Z,98987.16
2023-03-11T22:35:03.533Z,98989.64
2023-03-11T22:37:35.876Z,98989.70
2023-03-11T22:40:11.358Z,98992.94
2023-03-11T22:42:43.734Z,98993.27
2023-03-11T22:45:16.144Z,98994.32
2023-03-11T22:47:48.446Z,98988.92
2023-03-11T22:50:21.899Z,98991.23
2023-03-11T22:52:54.275Z,98987.17
2023-03-11T22:55:26.884Z,98984.23
2023-03-11T22:57:59.267Z,98983.00
2023-03-11T23:00:31.667Z,98982.21
2023-03-11T23:03:04.410Z,98977.51
2023-03-11T23:05:42.064Z,98976.50
2023-03-11T23:08:16.668Z,98977.41
2023-03-11T23:10:49.669Z,98974.67
2023-03-11T23:13:22.177Z,98973.27
2023-03-11T23:15:54.508Z,98975.41
2023-03-11T23:18:27.481Z,98974.38
2023-03-11T23:21:00.007Z,98973.58
2023-03-11T23:23:32.535Z,98980.41
2023-03-11T23:26:10.273Z,98979.69
2023-03-11T23:28:44.384Z,98975.41
2023-03-11T23:31:18.972Z,98976.96
2023-03-11T23:33:51.501Z,98970.91
2023-03-11T23:36:27.636Z,98969.00
2023-03-11T23:39:00.353Z,98963.09
2023-03-11T23:41:32.711Z,98958.76
2023-03-11T23:44:05.416Z,98959.52
2023-03-11T23:46:37.804Z,98960.68
2023-03-11T23:49:10.167Z,98965.05
2023-03-11T23:51:42.616Z,98956.91
2023-03-11T23:54:14.893Z,98950.67
2023-03-11T23:56:47.415Z,98952.02
2023-03-11T23:59:19.732Z,98948.06
